sensor_id;sensor_type;location;lat;lon;timestamp;P1;durP1;ratioP1;P2;durP2;ratioP2
40116;SDS011;25829;50.228;18.936;2022-11-15T00:00:28;50.93;;;16.07;;
40116;SDS011;25829;50.228;18.936;2022-11-15T00:03:50;48.20;;;15.57;;
40116;SDS011;25829;50.228;18.936;2022-11-15T00:07:10;61.90;;;16.43;;
40116;SDS011;25829;50.228;18.936;2022-11-15T00:10:29;32.37;;;15.50;;
40116;SDS011;25829;50.228;18.936;2022-11-15T00:13:49;44.10;;;14.93;;
40116;SDS011;25829;50.228;18.936;2022-11-15T00:17:08;52.63;;;16.07;;
40116;SDS011;25829;50.228;18.936;2022-11-15T00:20:28;33.17;;;15.37;;
40116;SDS011;25829;50.228;18.936;2022-11-15T00:23:47;30.97;;;15.83;;
40116;SDS011;25829;50.228;18.936;2022-11-15T00:27:07;35.30;;;15.77;;
40116;SDS011;25829;50.228;18.936;2022-11-15T00:30:27;46.27;;;15.73;;
40116;SDS011;25829;50.228;18.936;2022-11-15T00:33:46;33.40;;;14.77;;
40116;SDS011;25829;50.228;18.936;2022-11-15T00:37:06;40.07;;;14.63;;
40116;SDS011;25829;50.228;18.936;2022-11-15T00:40:25;34.13;;;14.10;;
40116;SDS011;25829;50.228;18.936;2022-11-15T00:43:45;34.83;;;13.63;;
40116;SDS011;25829;50.228;18.936;2022-11-15T00:47:04;33.70;;;13.97;;
40116;SDS011;25829;50.228;18.936;2022-11-15T00:50:23;30.13;;;15.07;;
40116;SDS011;25829;50.228;18.936;2022-11-15T00:53:42;37.93;;;15.67;;
40116;SDS011;25829;50.228;18.936;2022-11-15T00:57:02;33.20;;;14.53;;
40116;SDS011;25829;50.228;18.936;2022-11-15T01:00:22;33.83;;;14.70;;
40116;SDS011;25829;50.228;18.936;2022-11-15T01:03:42;31.90;;;13.57;;
40116;SDS011;25829;50.228;18.936;2022-11-15T01:07:01;30.00;;;13.83;;
40116;SDS011;25829;50.228;18.936;2022-11-15T01:10:21;39.53;;;15.23;;
40116;SDS011;25829;50.228;18.936;2022-11-15T01:13:41;37.30;;;14.67;;
40116;SDS011;25829;50.228;18.936;2022-11-15T01:17:00;50.90;;;15.30;;
40116;SDS011;25829;50.228;18.936;2022-11-15T01:20:20;40.90;;;13.67;;
40116;SDS011;25829;50.228;18.936;2022-11-15T01:23:39;40.63;;;14.47;;
40116;SDS011;25829;50.228;18.936;2022-11-15T01:26:58;28.47;;;12.93;;
40116;SDS011;25829;50.228;18.936;2022-11-15T01:30:18;28.63;;;13.07;;
40116;SDS011;25829;50.228;18.936;2022-11-15T01:33:40;54.20;;;14.30;;
40116;SDS011;25829;50.228;18.936;2022-11-15T01:37:00;28.60;;;12.93;;
40116;SDS011;25829;50.228;18.936;2022-11-15T01:40:19;28.03;;;13.03;;
40116;SDS011;25829;50.228;18.936;2022-11-15T01:43:39;47.97;;;12.83;;
40116;SDS011;25829;50.228;18.936;2022-11-15T01:46:59;45.80;;;13.10;;
40116;SDS011;25829;50.228;18.936;2022-11-15T01:50:27;42.20;;;13.80;;
40116;SDS011;25829;50.228;18.936;2022-11-15T01:53:51;33.17;;;12.57;;
40116;SDS011;25829;50.228;18.936;2022-11-15T01:57:14;41.97;;;13.67;;
40116;SDS011;25829;50.228;18.936;2022-11-15T02:00:33;37.57;;;11.47;;
40116;SDS011;25829;50.228;18.936;2022-11-15T02:03:57;28.17;;;12.87;;
40116;SDS011;25829;50.228;18.936;2022-11-15T02:07:21;41.33;;;12.17;;
40116;SDS011;25829;50.228;18.936;2022-11-15T02:10:41;47.43;;;10.87;;
40116;SDS011;25829;50.228;18.936;2022-11-15T02:14:00;33.87;;;12.40;;
40116;SDS011;25829;50.228;18.936;2022-11-15T02:24:35;31.57;;;10.73;;
40116;SDS011;25829;50.228;18.936;2022-11-15T02:28:30;35.23;;;11.30;;
40116;SDS011;25829;50.228;18.936;2022-11-15T02:32:18;43.03;;;11.37;;
40116;SDS011;25829;50.228;18.936;2022-11-15T02:35:46;33.03;;;10.93;;
40116;SDS011;25829;50.228;18.936;2022-11-15T02:42:46;41.03;;;11.37;;
40116;SDS011;25829;50.228;18.936;2022-11-15T02:50:29;24.07;;;10.17;;
40116;SDS011;25829;50.228;18.936;2022-11-15T02:53:51;47.83;;;12.47;;
40116;SDS011;25829;50.228;18.936;2022-11-15T02:57:12;38.07;;;12.33;;
40116;SDS011;25829;50.228;18.936;2022-11-15T03:00:35;43.07;;;13.77;;
40116;SDS011;25829;50.228;18.936;2022-11-15T03:04:13;51.57;;;18.57;;
40116;SDS011;25829;50.228;18.936;2022-11-15T03:07:51;40.40;;;12.67;;
40116;SDS011;25829;50.228;18.936;2022-11-15T03:11:14;46.67;;;12.13;;
40116;SDS011;25829;50.228;18.936;2022-11-15T03:14:45;37.10;;;12.63;;
40116;SDS011;25829;50.228;18.936;2022-11-15T03:18:21;36.57;;;12.93;;
40116;SDS011;25829;50.228;18.936;2022-11-15T03:21:49;35.63;;;11.37;;
40116;SDS011;25829;50.228;18.936;2022-11-15T03:25:10;37.47;;;11.50;;
40116;SDS011;25829;50.228;18.936;2022-11-15T03:28:38;40.03;;;12.20;;
40116;SDS011;25829;50.228;18.936;2022-11-15T03:32:07;31.80;;;11.77;;
40116;SDS011;25829;50.228;18.936;2022-11-15T03:35:37;35.37;;;11.27;;
40116;SDS011;25829;50.228;18.936;2022-11-15T03:39:04;32.13;;;11.57;;
40116;SDS011;25829;50.228;18.936;2022-11-15T03:46:17;33.03;;;10.27;;
40116;SDS011;25829;50.228;18.936;2022-11-15T03:49:43;33.97;;;10.27;;
40116;SDS011;25829;50.228;18.936;2022-11-15T03:53:05;23.90;;;10.70;;
40116;SDS011;25829;50.228;18.936;2022-11-15T03:56:24;42.20;;;11.33;;
40116;SDS011;25829;50.228;18.936;2022-11-15T03:59:44;26.57;;;10.40;;
40116;SDS011;25829;50.228;18.936;2022-11-15T04:03:05;39.00;;;10.87;;
40116;SDS011;25829;50.228;18.936;2022-11-15T04:06:26;39.33;;;11.33;;
40116;SDS011;25829;50.228;18.936;2022-11-15T04:09:46;28.23;;;10.37;;
40116;SDS011;25829;50.228;18.936;2022-11-15T04:13:23;32.67;;;11.30;;
40116;SDS011;25829;50.228;18.936;2022-11-15T04:16:46;32.50;;;13.80;;
40116;SDS011;25829;50.228;18.936;2022-11-15T04:20:13;39.93;;;11.93;;
40116;SDS011;25829;50.228;18.936;2022-11-15T04:23:59;43.93;;;12.83;;
40116;SDS011;25829;50.228;18.936;2022-11-15T04:27:23;44.97;;;14.60;;
40116;SDS011;25829;50.228;18.936;2022-11-15T04:30:45;46.00;;;14.07;;
40116;SDS011;25829;50.228;18.936;2022-11-15T04:34:07;54.67;;;13.23;;
40116;SDS011;25829;50.228;18.936;2022-11-15T04:37:40;45.97;;;13.57;;
40116;SDS011;25829;50.228;18.936;2022-11-15T04:41:02;37.53;;;13.60;;
40116;SDS011;25829;50.228;18.936;2022-11-15T04:44:22;44.37;;;12.33;;
40116;SDS011;25829;50.228;18.936;2022-11-15T04:47:47;30.07;;;12.57;;
40116;SDS011;25829;50.228;18.936;2022-11-15T04:51:11;33.93;;;10.90;;
40116;SDS011;25829;50.228;18.936;2022-11-15T04:54:31;47.00;;;12.90;;
40116;SDS011;25829;50.228;18.936;2022-11-15T04:57:56;31.23;;;11.77;;
40116;SDS011;25829;50.228;18.936;2022-11-15T05:01:19;42.70;;;14.13;;
40116;SDS011;25829;50.228;18.936;2022-11-15T05:04:42;76.30;;;13.10;;
40116;SDS011;25829;50.228;18.936;2022-11-15T05:08:01;36.33;;;12.47;;
40116;SDS011;25829;50.228;18.936;2022-11-15T05:15:03;38.87;;;12.83;;
40116;SDS011;25829;50.228;18.936;2022-11-15T05:18:22;37.27;;;11.10;;
40116;SDS011;25829;50.228;18.936;2022-11-15T05:21:42;39.03;;;13.73;;
40116;SDS011;25829;50.228;18.936;2022-11-15T05:25:08;28.10;;;11.73;;
40116;SDS011;25829;50.228;18.936;2022-11-15T05:28:39;29.30;;;10.03;;
40116;SDS011;25829;50.228;18.936;2022-11-15T05:32:08;63.73;;;11.80;;
40116;SDS011;25829;50.228;18.936;2022-11-15T05:39:18;39.00;;;13.00;;
40116;SDS011;25829;50.228;18.936;2022-11-15T05:42:43;64.10;;;13.27;;
40116;SDS011;25829;50.228;18.936;2022-11-15T05:46:13;85.33;;;14.07;;
40116;SDS011;25829;50.228;18.936;2022-11-15T05:49:33;95.83;;;13.60;;
40116;SDS011;25829;50.228;18.936;2022-11-15T05:53:14;84.83;;;15.23;;
40116;SDS011;25829;50.228;18.936;2022-11-15T06:00:08;42.13;;;14.40;;
40116;SDS011;25829;50.228;18.936;2022-11-15T06:03:39;65.40;;;15.37;;
40116;SDS011;25829;50.228;18.936;2022-11-15T06:07:10;50.10;;;12.93;;
40116;SDS011;25829;50.228;18.936;2022-11-15T06:10:29;56.80;;;14.47;;
40116;SDS011;25829;50.228;18.936;2022-11-15T06:13:49;48.37;;;15.47;;
40116;SDS011;25829;50.228;18.936;2022-11-15T06:17:14;48.53;;;13.53;;
40116;SDS011;25829;50.228;18.936;2022-11-15T06:20:34;40.17;;;14.03;;
40116;SDS011;25829;50.228;18.936;2022-11-15T06:23:59;42.97;;;14.17;;
40116;SDS011;25829;50.228;18.936;2022-11-15T06:27:18;45.13;;;15.77;;
40116;SDS011;25829;50.228;18.936;2022-11-15T06:30:37;48.07;;;16.17;;
40116;SDS011;25829;50.228;18.936;2022-11-15T06:34:03;45.03;;;14.77;;
40116;SDS011;25829;50.228;18.936;2022-11-15T06:37:22;64.00;;;15.63;;
40116;SDS011;25829;50.228;18.936;2022-11-15T06:40:45;50.73;;;14.43;;
40116;SDS011;25829;50.228;18.936;2022-11-15T06:48:11;34.03;;;14.17;;
40116;SDS011;25829;50.228;18.936;2022-11-15T06:55:34;34.90;;;15.27;;
40116;SDS011;25829;50.228;18.936;2022-11-15T07:06:35;40.97;;;15.23;;
40116;SDS011;25829;50.228;18.936;2022-11-15T07:09:54;30.30;;;15.73;;
40116;SDS011;25829;50.228;18.936;2022-11-15T07:13:20;46.53;;;15.20;;
40116;SDS011;25829;50.228;18.936;2022-11-15T07:16:50;38.90;;;17.30;;
40116;SDS011;25829;50.228;18.936;2022-11-15T07:24:31;29.57;;;16.70;;
40116;SDS011;25829;50.228;18.936;2022-11-15T07:36:09;33.57;;;17.60;;
40116;SDS011;25829;50.228;18.936;2022-11-15T07:39:28;39.90;;;18.00;;
40116;SDS011;25829;50.228;18.936;2022-11-15T07:43:03;26.87;;;15.97;;
40116;SDS011;25829;50.228;18.936;2022-11-15T07:46:33;28.70;;;14.83;;
40116;SDS011;25829;50.228;18.936;2022-11-15T07:50:03;34.50;;;16.63;;
40116;SDS011;25829;50.228;18.936;2022-11-15T07:53:25;27.90;;;15.93;;
40116;SDS011;25829;50.228;18.936;2022-11-15T07:56:56;26.23;;;15.80;;
40116;SDS011;25829;50.228;18.936;2022-11-15T08:00:16;27.43;;;16.87;;
40116;SDS011;25829;50.228;18.936;2022-11-15T08:03:36;34.33;;;18.30;;
40116;SDS011;25829;50.228;18.936;2022-11-15T08:07:04;27.70;;;17.90;;
40116;SDS011;25829;50.228;18.936;2022-11-15T08:23:20;32.10;;;19.87;;
40116;SDS011;25829;50.228;18.936;2022-11-15T08:30:45;31.70;;;19.53;;
40116;SDS011;25829;50.228;18.936;2022-11-15T08:42:30;30.70;;;19.37;;
40116;SDS011;25829;50.228;18.936;2022-11-15T08:49:13;25.77;;;17.33;;
40116;SDS011;25829;50.228;18.936;2022-11-15T08:52:32;27.43;;;16.40;;
40116;SDS011;25829;50.228;18.936;2022-11-15T08:55:51;22.93;;;16.07;;
40116;SDS011;25829;50.228;18.936;2022-11-15T08:59:11;26.03;;;17.33;;
40116;SDS011;25829;50.228;18.936;2022-11-15T09:02:30;26.17;;;16.47;;
40116;SDS011;25829;50.228;18.936;2022-11-15T09:05:54;24.17;;;16.67;;
40116;SDS011;25829;50.228;18.936;2022-11-15T09:09:20;20.40;;;14.57;;
40116;SDS011;25829;50.228;18.936;2022-11-15T09:12:43;25.37;;;16.57;;
40116;SDS011;25829;50.228;18.936;2022-11-15T09:16:02;24.77;;;16.67;;
40116;SDS011;25829;50.228;18.936;2022-11-15T09:19:23;25.03;;;16.40;;
40116;SDS011;25829;50.228;18.936;2022-11-15T09:22:45;24.70;;;16.90;;
40116;SDS011;25829;50.228;18.936;2022-11-15T09:26:05;25.43;;;17.93;;
40116;SDS011;25829;50.228;18.936;2022-11-15T09:29:25;24.90;;;16.60;;
40116;SDS011;25829;50.228;18.936;2022-11-15T09:32:44;23.77;;;16.70;;
40116;SDS011;25829;50.228;18.936;2022-11-15T09:36:04;23.40;;;16.83;;
40116;SDS011;25829;50.228;18.936;2022-11-15T09:39:31;22.25;;;16.88;;
40116;SDS011;25829;50.228;18.936;2022-11-15T09:46:36;23.77;;;17.88;;
40116;SDS011;25829;50.228;18.936;2022-11-15T09:50:14;23.15;;;17.83;;
40116;SDS011;25829;50.228;18.936;2022-11-15T09:57:03;26.45;;;18.02;;
40116;SDS011;25829;50.228;18.936;2022-11-15T10:00:08;29.90;;;19.02;;
40116;SDS011;25829;50.228;18.936;2022-11-15T10:03:49;25.17;;;18.60;;
40116;SDS011;25829;50.228;18.936;2022-11-15T10:06:55;25.30;;;18.70;;
40116;SDS011;25829;50.228;18.936;2022-11-15T10:10:12;27.20;;;20.10;;
40116;SDS011;25829;50.228;18.936;2022-11-15T10:13:28;27.42;;;18.92;;
40116;SDS011;25829;50.228;18.936;2022-11-15T10:20:19;26.17;;;19.23;;
40116;SDS011;25829;50.228;18.936;2022-11-15T10:23:48;30.25;;;21.35;;
40116;SDS011;25829;50.228;18.936;2022-11-15T10:26:50;24.48;;;19.15;;
40116;SDS011;25829;50.228;18.936;2022-11-15T10:29:51;26.70;;;20.00;;
40116;SDS011;25829;50.228;18.936;2022-11-15T10:33:18;26.55;;;19.73;;
40116;SDS011;25829;50.228;18.936;2022-11-15T10:36:22;26.55;;;19.77;;
40116;SDS011;25829;50.228;18.936;2022-11-15T10:39:26;25.85;;;18.75;;
40116;SDS011;25829;50.228;18.936;2022-11-15T10:42:28;27.23;;;20.17;;
40116;SDS011;25829;50.228;18.936;2022-11-15T10:45:38;27.73;;;19.42;;
40116;SDS011;25829;50.228;18.936;2022-11-15T10:49:15;21.67;;;18.00;;
40116;SDS011;25829;50.228;18.936;2022-11-15T10:52:46;24.00;;;18.10;;
40116;SDS011;25829;50.228;18.936;2022-11-15T10:55:48;20.13;;;15.25;;
40116;SDS011;25829;50.228;18.936;2022-11-15T10:58:53;20.40;;;14.10;;
40116;SDS011;25829;50.228;18.936;2022-11-15T11:01:58;16.40;;;13.40;;
40116;SDS011;25829;50.228;18.936;2022-11-15T11:05:24;18.60;;;14.35;;
40116;SDS011;25829;50.228;18.936;2022-11-15T11:09:04;21.45;;;14.57;;
40116;SDS011;25829;50.228;18.936;2022-11-15T11:15:47;22.65;;;15.32;;
40116;SDS011;25829;50.228;18.936;2022-11-15T11:20:06;20.65;;;14.02;;
40116;SDS011;25829;50.228;18.936;2022-11-15T11:52:17;25.40;;;18.38;;
40116;SDS011;25829;50.228;18.936;2022-11-15T12:02:49;35.55;;;19.52;;
40116;SDS011;25829;50.228;18.936;2022-11-15T12:10:37;30.55;;;18.88;;
40116;SDS011;25829;50.228;18.936;2022-11-15T12:13:39;26.17;;;17.95;;
40116;SDS011;25829;50.228;18.936;2022-11-15T12:16:42;25.85;;;17.67;;
40116;SDS011;25829;50.228;18.936;2022-11-15T12:19:46;26.60;;;17.77;;
40116;SDS011;25829;50.228;18.936;2022-11-15T12:26:17;29.95;;;19.17;;
40116;SDS011;25829;50.228;18.936;2022-11-15T12:29:34;29.48;;;19.23;;
40116;SDS011;25829;50.228;18.936;2022-11-15T12:33:02;29.20;;;18.08;;
40116;SDS011;25829;50.228;18.936;2022-11-15T12:40:03;27.45;;;19.98;;
40116;SDS011;25829;50.228;18.936;2022-11-15T12:47:01;51.22;;;38.35;;
40116;SDS011;25829;50.228;18.936;2022-11-15T13:00:48;29.65;;;18.90;;
40116;SDS011;25829;50.228;18.936;2022-11-15T13:10:40;29.92;;;19.77;;
40116;SDS011;25829;50.228;18.936;2022-11-15T13:17:29;30.70;;;19.52;;
40116;SDS011;25829;50.228;18.936;2022-11-15T13:20:48;28.17;;;19.13;;
40116;SDS011;25829;50.228;18.936;2022-11-15T13:27:38;30.05;;;18.77;;
40116;SDS011;25829;50.228;18.936;2022-11-15T13:38:44;32.37;;;20.10;;
40116;SDS011;25829;50.228;18.936;2022-11-15T13:46:37;27.93;;;19.53;;
40116;SDS011;25829;50.228;18.936;2022-11-15T13:50:05;30.17;;;18.90;;
40116;SDS011;25829;50.228;18.936;2022-11-15T13:53:24;32.60;;;19.93;;
40116;SDS011;25829;50.228;18.936;2022-11-15T13:56:38;28.03;;;20.50;;
40116;SDS011;25829;50.228;18.936;2022-11-15T14:04:18;38.93;;;22.67;;
40116;SDS011;25829;50.228;18.936;2022-11-15T14:07:22;35.10;;;21.60;;
40116;SDS011;25829;50.228;18.936;2022-11-15T14:10:35;34.30;;;21.83;;
40116;SDS011;25829;50.228;18.936;2022-11-15T14:28:06;44.07;;;28.97;;
40116;SDS011;25829;50.228;18.936;2022-11-15T14:31:30;44.37;;;25.67;;
40116;SDS011;25829;50.228;18.936;2022-11-15T14:34:31;40.33;;;26.60;;
40116;SDS011;25829;50.228;18.936;2022-11-15T14:40:51;38.90;;;26.65;;
40116;SDS011;25829;50.228;18.936;2022-11-15T14:44:01;38.40;;;27.37;;
40116;SDS011;25829;50.228;18.936;2022-11-15T14:47:05;44.50;;;28.07;;
40116;SDS011;25829;50.228;18.936;2022-11-15T14:50:17;40.50;;;25.58;;
40116;SDS011;25829;50.228;18.936;2022-11-15T14:53:32;39.53;;;26.13;;
40116;SDS011;25829;50.228;18.936;2022-11-15T15:00:16;42.63;;;25.47;;
40116;SDS011;25829;50.228;18.936;2022-11-15T15:07:18;48.22;;;29.92;;
40116;SDS011;25829;50.228;18.936;2022-11-15T15:10:36;42.67;;;28.77;;
40116;SDS011;25829;50.228;18.936;2022-11-15T15:40:29;49.50;;;29.63;;
40116;SDS011;25829;50.228;18.936;2022-11-15T15:43:34;41.45;;;26.50;;
40116;SDS011;25829;50.228;18.936;2022-11-15T15:46:46;43.92;;;27.85;;
40116;SDS011;25829;50.228;18.936;2022-11-15T15:50:01;44.85;;;28.50;;
40116;SDS011;25829;50.228;18.936;2022-11-15T15:53:54;45.27;;;26.93;;
40116;SDS011;25829;50.228;18.936;2022-11-15T15:56:57;48.20;;;31.00;;
40116;SDS011;25829;50.228;18.936;2022-11-15T16:00:00;55.87;;;34.37;;
40116;SDS011;25829;50.228;18.936;2022-11-15T16:06:52;86.50;;;49.33;;
40116;SDS011;25829;50.228;18.936;2022-11-15T16:09:58;86.23;;;46.20;;
40116;SDS011;25829;50.228;18.936;2022-11-15T16:16:34;84.27;;;44.17;;
40116;SDS011;25829;50.228;18.936;2022-11-15T16:19:36;82.33;;;42.33;;
40116;SDS011;25829;50.228;18.936;2022-11-15T16:22:42;73.90;;;42.87;;
40116;SDS011;25829;50.228;18.936;2022-11-15T16:29:24;75.73;;;40.30;;
40116;SDS011;25829;50.228;18.936;2022-11-15T16:32:30;90.97;;;44.97;;
40116;SDS011;25829;50.228;18.936;2022-11-15T16:35:39;74.53;;;42.43;;
40116;SDS011;25829;50.228;18.936;2022-11-15T16:38:46;61.10;;;37.40;;
40116;SDS011;25829;50.228;18.936;2022-11-15T16:41:50;58.67;;;36.00;;
40116;SDS011;25829;50.228;18.936;2022-11-15T16:44:51;58.87;;;35.67;;
40116;SDS011;25829;50.228;18.936;2022-11-15T16:48:10;56.07;;;35.90;;
40116;SDS011;25829;50.228;18.936;2022-11-15T16:51:58;60.37;;;35.40;;
40116;SDS011;25829;50.228;18.936;2022-11-15T16:55:01;57.80;;;35.13;;
40116;SDS011;25829;50.228;18.936;2022-11-15T16:58:41;54.17;;;35.03;;
40116;SDS011;25829;50.228;18.936;2022-11-15T17:02:10;51.43;;;33.77;;
40116;SDS011;25829;50.228;18.936;2022-11-15T17:05:20;68.27;;;44.50;;
40116;SDS011;25829;50.228;18.936;2022-11-15T17:09:05;56.03;;;38.00;;
40116;SDS011;25829;50.228;18.936;2022-11-15T17:12:37;80.43;;;50.93;;
40116;SDS011;25829;50.228;18.936;2022-11-15T17:15:43;78.90;;;48.10;;
40116;SDS011;25829;50.228;18.936;2022-11-15T17:23:13;57.40;;;36.97;;
40116;SDS011;25829;50.228;18.936;2022-11-15T17:26:14;58.03;;;37.57;;
40116;SDS011;25829;50.228;18.936;2022-11-15T17:29:23;70.40;;;44.30;;
40116;SDS011;25829;50.228;18.936;2022-11-15T17:32:26;67.93;;;42.47;;
40116;SDS011;25829;50.228;18.936;2022-11-15T17:35:27;62.57;;;41.33;;
40116;SDS011;25829;50.228;18.936;2022-11-15T17:38:28;59.67;;;36.07;;
40116;SDS011;25829;50.228;18.936;2022-11-15T17:41:52;61.40;;;36.30;;
40116;SDS011;25829;50.228;18.936;2022-11-15T17:44:53;63.13;;;36.63;;
40116;SDS011;25829;50.228;18.936;2022-11-15T17:47:56;55.03;;;35.13;;
40116;SDS011;25829;50.228;18.936;2022-11-15T17:51:07;59.40;;;36.60;;
40116;SDS011;25829;50.228;18.936;2022-11-15T17:54:13;64.63;;;40.07;;
40116;SDS011;25829;50.228;18.936;2022-11-15T17:57:23;74.73;;;43.80;;
40116;SDS011;25829;50.228;18.936;2022-11-15T18:03:48;85.53;;;47.53;;
40116;SDS011;25829;50.228;18.936;2022-11-15T18:07:02;69.70;;;39.60;;
40116;SDS011;25829;50.228;18.936;2022-11-15T18:10:15;64.30;;;38.87;;
40116;SDS011;25829;50.228;18.936;2022-11-15T18:13:16;76.23;;;42.63;;
40116;SDS011;25829;50.228;18.936;2022-11-15T18:16:22;74.77;;;40.80;;
40116;SDS011;25829;50.228;18.936;2022-11-15T18:19:25;70.60;;;40.90;;
40116;SDS011;25829;50.228;18.936;2022-11-15T18:22:26;64.57;;;39.10;;
40116;SDS011;25829;50.228;18.936;2022-11-15T18:25:27;69.13;;;40.03;;
40116;SDS011;25829;50.228;18.936;2022-11-15T18:28:31;62.63;;;38.23;;
40116;SDS011;25829;50.228;18.936;2022-11-15T18:31:37;66.50;;;40.23;;
40116;SDS011;25829;50.228;18.936;2022-11-15T18:34:50;67.57;;;39.37;;
40116;SDS011;25829;50.228;18.936;2022-11-15T18:38:00;59.77;;;37.70;;
40116;SDS011;25829;50.228;18.936;2022-11-15T18:45:25;63.40;;;39.57;;
40116;SDS011;25829;50.228;18.936;2022-11-15T18:53:04;67.30;;;39.97;;
40116;SDS011;25829;50.228;18.936;2022-11-15T18:56:15;63.40;;;37.10;;
40116;SDS011;25829;50.228;18.936;2022-11-15T18:59:30;58.77;;;36.90;;
40116;SDS011;25829;50.228;18.936;2022-11-15T19:02:31;70.80;;;39.60;;
40116;SDS011;25829;50.228;18.936;2022-11-15T19:05:32;70.47;;;42.37;;
40116;SDS011;25829;50.228;18.936;2022-11-15T19:08:38;126.37;;;71.43;;
40116;SDS011;25829;50.228;18.936;2022-11-15T19:11:40;86.93;;;50.57;;
40116;SDS011;25829;50.228;18.936;2022-11-15T19:14:41;103.60;;;67.10;;
40116;SDS011;25829;50.228;18.936;2022-11-15T19:17:51;105.17;;;66.40;;
40116;SDS011;25829;50.228;18.936;2022-11-15T19:20:53;100.70;;;58.97;;
40116;SDS011;25829;50.228;18.936;2022-11-15T19:24:01;94.20;;;51.43;;
40116;SDS011;25829;50.228;18.936;2022-11-15T19:27:02;83.73;;;49.03;;
40116;SDS011;25829;50.228;18.936;2022-11-15T19:30:03;75.37;;;45.60;;
40116;SDS011;25829;50.228;18.936;2022-11-15T19:33:06;72.73;;;45.90;;
40116;SDS011;25829;50.228;18.936;2022-11-15T19:36:11;74.87;;;44.70;;
40116;SDS011;25829;50.228;18.936;2022-11-15T19:39:23;70.40;;;45.03;;
40116;SDS011;25829;50.228;18.936;2022-11-15T19:42:27;75.67;;;45.30;;
40116;SDS011;25829;50.228;18.936;2022-11-15T19:45:28;74.00;;;44.70;;
40116;SDS011;25829;50.228;18.936;2022-11-15T19:48:29;62.37;;;39.83;;
40116;SDS011;25829;50.228;18.936;2022-11-15T19:51:31;62.13;;;37.47;;
40116;SDS011;25829;50.228;18.936;2022-11-15T19:54:32;67.60;;;41.13;;
40116;SDS011;25829;50.228;18.936;2022-11-15T19:57:33;69.07;;;41.67;;
40116;SDS011;25829;50.228;18.936;2022-11-15T20:00:33;67.10;;;39.83;;
40116;SDS011;25829;50.228;18.936;2022-11-15T20:03:34;65.87;;;41.40;;
40116;SDS011;25829;50.228;18.936;2022-11-15T20:06:39;63.97;;;40.00;;
40116;SDS011;25829;50.228;18.936;2022-11-15T20:09:44;66.37;;;39.73;;
40116;SDS011;25829;50.228;18.936;2022-11-15T20:12:45;69.30;;;40.17;;
40116;SDS011;25829;50.228;18.936;2022-11-15T20:15:46;72.33;;;40.30;;
40116;SDS011;25829;50.228;18.936;2022-11-15T20:18:48;68.90;;;40.17;;
40116;SDS011;25829;50.228;18.936;2022-11-15T20:22:15;66.43;;;41.90;;
40116;SDS011;25829;50.228;18.936;2022-11-15T20:25:25;74.10;;;44.47;;
40116;SDS011;25829;50.228;18.936;2022-11-15T20:28:35;87.70;;;49.83;;
40116;SDS011;25829;50.228;18.936;2022-11-15T20:31:42;88.23;;;48.93;;
40116;SDS011;25829;50.228;18.936;2022-11-15T20:34:45;80.13;;;48.10;;
40116;SDS011;25829;50.228;18.936;2022-11-15T20:37:58;72.07;;;43.93;;
40116;SDS011;25829;50.228;18.936;2022-11-15T20:40:58;77.23;;;44.73;;
40116;SDS011;25829;50.228;18.936;2022-11-15T20:43:59;81.07;;;52.50;;
40116;SDS011;25829;50.228;18.936;2022-11-15T20:47:02;94.47;;;56.17;;
40116;SDS011;25829;50.228;18.936;2022-11-15T20:50:03;89.23;;;51.67;;
40116;SDS011;25829;50.228;18.936;2022-11-15T20:53:05;75.00;;;48.47;;
40116;SDS011;25829;50.228;18.936;2022-11-15T20:56:16;82.47;;;48.97;;
40116;SDS011;25829;50.228;18.936;2022-11-15T20:59:18;88.93;;;53.87;;
40116;SDS011;25829;50.228;18.936;2022-11-15T21:02:28;73.73;;;45.13;;
40116;SDS011;25829;50.228;18.936;2022-11-15T21:05:32;72.27;;;44.00;;
40116;SDS011;25829;50.228;18.936;2022-11-15T21:08:43;77.50;;;46.23;;
40116;SDS011;25829;50.228;18.936;2022-11-15T21:12:32;76.13;;;45.23;;
40116;SDS011;25829;50.228;18.936;2022-11-15T21:15:33;76.63;;;44.17;;
40116;SDS011;25829;50.228;18.936;2022-11-15T21:18:34;73.45;;;44.75;;
40116;SDS011;25829;50.228;18.936;2022-11-15T21:21:35;74.55;;;46.30;;
40116;SDS011;25829;50.228;18.936;2022-11-15T21:24:51;82.63;;;47.40;;
40116;SDS011;25829;50.228;18.936;2022-11-15T21:28:08;110.27;;;62.17;;
40116;SDS011;25829;50.228;18.936;2022-11-15T21:31:30;84.47;;;52.17;;
40116;SDS011;25829;50.228;18.936;2022-11-15T21:34:31;90.33;;;51.37;;
40116;SDS011;25829;50.228;18.936;2022-11-15T21:37:32;84.87;;;50.80;;
40116;SDS011;25829;50.228;18.936;2022-11-15T21:40:33;88.10;;;50.27;;
40116;SDS011;25829;50.228;18.936;2022-11-15T21:43:33;85.83;;;51.07;;
40116;SDS011;25829;50.228;18.936;2022-11-15T21:46:34;89.00;;;50.70;;
40116;SDS011;25829;50.228;18.936;2022-11-15T21:49:45;89.43;;;52.47;;
40116;SDS011;25829;50.228;18.936;2022-11-15T21:52:46;91.23;;;53.10;;
40116;SDS011;25829;50.228;18.936;2022-11-15T21:55:46;81.90;;;49.17;;
40116;SDS011;25829;50.228;18.936;2022-11-15T21:58:51;76.07;;;46.17;;
40116;SDS011;25829;50.228;18.936;2022-11-15T22:01:58;77.93;;;48.37;;
40116;SDS011;25829;50.228;18.936;2022-11-15T22:05:21;80.83;;;48.83;;
40116;SDS011;25829;50.228;18.936;2022-11-15T22:08:22;74.33;;;46.60;;
40116;SDS011;25829;50.228;18.936;2022-11-15T22:11:26;74.00;;;44.67;;
40116;SDS011;25829;50.228;18.936;2022-11-15T22:14:31;70.20;;;44.83;;
40116;SDS011;25829;50.228;18.936;2022-11-15T22:17:35;82.80;;;49.53;;
40116;SDS011;25829;50.228;18.936;2022-11-15T22:20:55;87.17;;;50.80;;
40116;SDS011;25829;50.228;18.936;2022-11-15T22:24:02;80.70;;;49.27;;
40116;SDS011;25829;50.228;18.936;2022-11-15T22:27:03;77.63;;;47.10;;
40116;SDS011;25829;50.228;18.936;2022-11-15T22:30:04;89.00;;;50.77;;
40116;SDS011;25829;50.228;18.936;2022-11-15T22:33:05;92.33;;;55.57;;
40116;SDS011;25829;50.228;18.936;2022-11-15T22:36:06;96.13;;;57.67;;
40116;SDS011;25829;50.228;18.936;2022-11-15T22:39:08;106.30;;;62.60;;
40116;SDS011;25829;50.228;18.936;2022-11-15T22:42:12;95.03;;;59.47;;
40116;SDS011;25829;50.228;18.936;2022-11-15T22:45:15;88.57;;;55.83;;
40116;SDS011;25829;50.228;18.936;2022-11-15T22:48:17;91.50;;;56.67;;
40116;SDS011;25829;50.228;18.936;2022-11-15T22:51:19;86.70;;;54.40;;
40116;SDS011;25829;50.228;18.936;2022-11-15T22:54:23;97.27;;;55.20;;
40116;SDS011;25829;50.228;18.936;2022-11-15T22:57:24;94.23;;;53.90;;
40116;SDS011;25829;50.228;18.936;2022-11-15T23:00:24;82.83;;;50.23;;
40116;SDS011;25829;50.228;18.936;2022-11-15T23:03:28;75.50;;;46.80;;
40116;SDS011;25829;50.228;18.936;2022-11-15T23:06:30;78.80;;;49.33;;
40116;SDS011;25829;50.228;18.936;2022-11-15T23:09:31;76.73;;;46.40;;
40116;SDS011;25829;50.228;18.936;2022-11-15T23:12:32;74.27;;;45.23;;
40116;SDS011;25829;50.228;18.936;2022-11-15T23:15:53;71.83;;;44.83;;
40116;SDS011;25829;50.228;18.936;2022-11-15T23:19:32;97.93;;;58.77;;